Terminal Aerodrome Forecast
Issued by NWS

Home | Current Version | Previous Version | Text Only | Print | Product List | Glossary Off
Versions: 1 2 3 4 5 6 7 8 9 10 11 12 13 14 15 16

000
FTUS43 KBIS 272325
TAFJMS
TAF
KJMS 272325Z 2800/2824 28012KT P6SM VCSH BKN100
     FM280100 29011KT P6SM -SHRA VCTS BKN090CB
      TEMPO 2801/2802 VRB20G35KT -TSRA BKN080CB
     FM280300 30010KT P6SM BKN120
     FM281500 31018KT P6SM FEW250
     FM281700 31020G30KT P6SM SCT045
     FM282100 31022G31KT P6SM BKN045=

USA.gov is the U.S. government's official web portal to all federal, state and local government web resources and services.